createdAt,value
2022-09-13T00:00:15.883Z,1005.02
2022-09-13T00:01:16.098Z,1005.06
2022-09-13T00:02:15.918Z,1005.09
2022-09-13T00:03:15.854Z,1005.08
2022-09-13T00:04:15.946Z,1005.00
2022-09-13T00:05:15.826Z,1004.94
2022-09-13T00:06:15.811Z,1004.93
2022-09-13T00:07:15.805Z,1004.92
2022-09-13T00:08:15.805Z,1004.90
2022-09-13T00:09:15.782Z,1004.96
2022-09-13T00:10:15.765Z,1004.96
2022-09-13T00:11:15.759Z,1004.98
2022-09-13T00:12:15.754Z,1004.98
2022-09-13T00:13:15.767Z,1005.03
2022-09-13T00:14:15.728Z,1005.03
2022-09-13T00:15:15.707Z,1005.03
2022-09-13T00:16:15.817Z,1005.02
2022-09-13T00:17:15.693Z,1005.04
2022-09-13T00:18:15.698Z,1005.06
2022-09-13T00:19:15.672Z,1005.08
2022-09-13T00:20:15.678Z,1005.06
2022-09-13T00:21:15.641Z,1005.00
2022-09-13T00:22:15.631Z,1004.92
2022-09-13T00:23:15.644Z,1004.86
2022-09-13T00:24:15.617Z,1004.80
2022-09-13T00:25:15.614Z,1004.73
2022-09-13T00:26:15.588Z,1004.75
2022-09-13T00:27:15.577Z,1004.74
2022-09-13T00:28:15.579Z,1004.74
2022-09-13T00:29:15.554Z,1004.75
2022-09-13T00:30:15.550Z,1004.78
2022-09-13T00:31:15.619Z,1004.77
2022-09-13T00:32:15.527Z,1004.79
2022-09-13T00:33:15.524Z,1004.75
2022-09-13T00:34:15.498Z,1004.77
2022-09-13T00:35:15.490Z,1004.78
2022-09-13T00:36:15.544Z,1004.77
2022-09-13T00:37:15.466Z,1004.80
2022-09-13T00:38:15.475Z,1004.77
2022-09-13T00:39:15.450Z,1004.77
2022-09-13T00:40:15.654Z,1004.77
2022-09-13T00:41:15.419Z,1004.81
2022-09-13T00:42:15.412Z,1004.82
2022-09-13T00:43:15.411Z,1004.80
2022-09-13T00:44:15.391Z,1004.80
2022-09-13T00:45:15.374Z,1004.74
2022-09-13T00:46:15.421Z,1004.75
2022-09-13T00:47:15.350Z,1004.71
2022-09-13T00:48:15.357Z,1004.78
2022-09-13T00:49:15.333Z,1004.77
2022-09-13T00:50:15.326Z,1004.78
2022-09-13T00:51:15.319Z,1004.80
2022-09-13T00:52:15.319Z,1004.78
2022-09-13T00:53:15.311Z,1004.82
2022-09-13T00:54:15.288Z,1004.79
2022-09-13T00:55:15.271Z,1004.81
2022-09-13T00:56:15.260Z,1004.78
2022-09-13T00:57:15.243Z,1004.84
2022-09-13T00:58:15.251Z,1004.81
2022-09-13T00:59:15.228Z,1004.81
2022-09-13T01:00:15.209Z,1004.81
2022-09-13T01:01:15.262Z,1004.78
2022-09-13T01:02:15.231Z,1004.78
2022-09-13T01:03:15.202Z,1004.81
2022-09-13T01:04:15.166Z,1004.85
2022-09-13T01:05:15.162Z,1004.86
2022-09-13T01:06:15.144Z,1004.89
2022-09-13T01:07:15.152Z,1004.85
2022-09-13T01:08:15.167Z,1004.85
2022-09-13T01:09:15.113Z,1004.84
2022-09-13T01:10:15.101Z,1004.82
2022-09-13T01:11:15.100Z,1004.82
2022-09-13T01:12:15.081Z,1004.83
2022-09-13T01:13:15.177Z,1004.85
2022-09-13T01:14:15.059Z,1004.85
2022-09-13T01:15:15.053Z,1004.88
2022-09-13T01:16:15.050Z,1004.88
2022-09-13T01:17:15.020Z,1004.89
2022-09-13T01:18:15.020Z,1004.92
2022-09-13T01:19:15.005Z,1004.90
2022-09-13T01:20:14.991Z,1004.90
2022-09-13T01:21:14.985Z,1004.87
2022-09-13T01:22:14.969Z,1004.85
2022-09-13T01:23:14.970Z,1004.84
2022-09-13T01:24:15.048Z,1004.85
2022-09-13T01:25:14.939Z,1004.86
2022-09-13T01:26:15.869Z,1004.86
2022-09-13T01:27:14.918Z,1004.89
2022-09-13T01:28:14.917Z,1004.93
2022-09-13T01:29:14.886Z,1004.88
2022-09-13T01:30:14.874Z,1004.92
2022-09-13T01:31:14.967Z,1004.93
2022-09-13T01:32:14.851Z,1004.90
2022-09-13T01:33:14.871Z,1004.90
2022-09-13T01:34:14.828Z,1004.92
2022-09-13T01:35:14.825Z,1004.92
2022-09-13T01:36:14.808Z,1004.91
2022-09-13T01:37:14.803Z,1004.91
2022-09-13T01:38:14.797Z,1004.91
2022-09-13T01:39:14.785Z,1004.92
2022-09-13T01:40:14.991Z,1004.88
2022-09-13T01:41:14.752Z,1004.88
2022-09-13T01:42:14.747Z,1004.85
2022-09-13T01:43:14.751Z,1004.88
2022-09-13T01:44:14.728Z,1004.90
2022-09-13T01:45:14.714Z,1004.89
2022-09-13T01:46:14.731Z,1004.91
2022-09-13T01:47:14.695Z,1004.89
2022-09-13T01:48:14.693Z,1004.87
2022-09-13T01:49:14.671Z,1004.86
2022-09-13T01:50:14.652Z,1004.90
2022-09-13T01:51:14.647Z,1004.89
2022-09-13T01:52:14.636Z,1004.89
2022-09-13T01:53:14.634Z,1004.89
2022-09-13T01:54:14.614Z,1004.86
2022-09-13T01:55:14.597Z,1004.89
2022-09-13T01:56:14.614Z,1004.89
2022-09-13T01:57:14.578Z,1004.87
2022-09-13T01:58:14.586Z,1004.82
2022-09-13T01:59:14.552Z,1004.81
2022-09-13T02:00:14.537Z,1004.75
2022-09-13T02:01:14.589Z,1004.78
2022-09-13T02:02:14.584Z,1004.76
2022-09-13T02:03:14.525Z,1004.70
2022-09-13T02:04:14.498Z,1004.70
2022-09-13T02:05:14.484Z,1004.71
2022-09-13T02:06:14.474Z,1004.69
2022-09-13T02:07:14.461Z,1004.70
2022-09-13T02:08:14.468Z,1004.70
2022-09-13T02:09:16.662Z,1004.69
2022-09-13T02:10:15.430Z,1004.69
2022-09-13T02:11:14.413Z,1004.66
2022-09-13T02:12:14.427Z,1004.64
2022-09-13T02:13:14.421Z,1004.61
2022-09-13T02:14:14.376Z,1004.61
2022-09-13T02:15:14.374Z,1004.66
2022-09-13T02:16:14.396Z,1004.67
2022-09-13T02:17:14.351Z,1004.68
2022-09-13T02:18:14.346Z,1004.68
2022-09-13T02:19:14.346Z,1004.64
2022-09-13T02:20:14.310Z,1004.68
2022-09-13T02:21:14.300Z,1004.67
2022-09-13T02:22:14.294Z,1004.62
2022-09-13T02:23:14.292Z,1004.59
2022-09-13T02:24:14.269Z,1004.55
2022-09-13T02:25:14.254Z,1004.55
2022-09-13T02:26:14.246Z,1004.55
2022-09-13T02:27:14.229Z,1004.56
2022-09-13T02:28:14.254Z,1004.55
2022-09-13T02:29:14.212Z,1004.55
2022-09-13T02:30:14.201Z,1004.51
2022-09-13T02:31:14.253Z,1004.51
2022-09-13T02:32:14.171Z,1004.53
2022-09-13T02:33:14.186Z,1004.48
2022-09-13T02:34:14.158Z,1004.50
2022-09-13T02:35:14.145Z,1004.50
2022-09-13T02:36:14.134Z,1004.48
2022-09-13T02:37:14.124Z,1004.50
2022-09-13T02:38:14.116Z,1004.50
2022-09-13T02:39:14.093Z,1004.48
2022-09-13T02:40:14.158Z,1004.48
2022-09-13T02:41:14.071Z,1004.45
2022-09-13T02:42:14.061Z,1004.46
2022-09-13T02:43:14.059Z,1004.45
2022-09-13T02:44:14.056Z,1004.44
2022-09-13T02:45:14.026Z,1004.39
2022-09-13T02:46:14.014Z,1004.39
2022-09-13T02:47:14.004Z,1004.38
2022-09-13T02:48:14.012Z,1004.42
2022-09-13T02:49:13.980Z,1004.39
2022-09-13T02:50:13.979Z,1004.43
2022-09-13T02:51:13.963Z,1004.47
2022-09-13T02:52:13.954Z,1004.54
2022-09-13T02:53:13.947Z,1004.56
2022-09-13T02:54:13.930Z,1004.58
2022-09-13T02:55:13.922Z,1004.53
2022-09-13T02:56:13.907Z,1004.55
2022-09-13T02:57:13.898Z,1004.54
2022-09-13T02:58:13.901Z,1004.57
2022-09-13T02:59:13.877Z,1004.51
2022-09-13T03:00:13.875Z,1004.47
2022-09-13T03:01:13.944Z,1004.51
2022-09-13T03:02:13.905Z,1004.52
2022-09-13T03:03:13.844Z,1004.53
2022-09-13T03:04:13.811Z,1004.50
2022-09-13T03:05:13.801Z,1004.57
2022-09-13T03:06:13.798Z,1004.56
2022-09-13T03:07:13.786Z,1004.57
2022-09-13T03:08:13.775Z,1004.59
2022-09-13T03:09:13.767Z,1004.61
2022-09-13T03:10:13.771Z,1004.63
2022-09-13T03:11:13.741Z,1004.60
2022-09-13T03:12:13.724Z,1004.60
2022-09-13T03:13:13.712Z,1004.59
2022-09-13T03:14:13.723Z,1004.57
2022-09-13T03:15:13.697Z,1004.59
2022-09-13T03:16:13.801Z,1004.61
2022-09-13T03:17:13.665Z,1004.52
2022-09-13T03:18:13.661Z,1004.51
2022-09-13T03:19:13.664Z,1004.51
2022-09-13T03:20:13.629Z,1004.50
2022-09-13T03:21:13.626Z,1004.50
2022-09-13T03:22:13.613Z,1004.48
2022-09-13T03:23:13.603Z,1004.49
2022-09-13T03:24:13.598Z,1004.50
2022-09-13T03:25:13.582Z,1004.45
2022-09-13T03:26:13.571Z,1004.44
2022-09-13T03:27:13.560Z,1004.42
2022-09-13T03:28:13.540Z,1004.41
2022-09-13T03:29:13.551Z,1004.39
2022-09-13T03:30:13.532Z,1004.36
2022-09-13T03:31:14.056Z,1004.38
2022-09-13T03:32:13.572Z,1004.36
2022-09-13T03:33:13.490Z,1004.37
2022-09-13T03:34:13.489Z,1004.35
2022-09-13T03:35:13.467Z,1004.38
2022-09-13T03:36:13.464Z,1004.34
2022-09-13T03:37:13.447Z,1004.35
2022-09-13T03:38:13.433Z,1004.36
2022-09-13T03:39:15.231Z,1004.34
2022-09-13T03:40:13.433Z,1004.34
2022-09-13T03:41:13.393Z,1004.32
2022-09-13T03:42:13.405Z,1004.35
2022-09-13T03:43:13.374Z,1004.35
2022-09-13T03:44:13.375Z,1004.29
2022-09-13T03:45:13.354Z,1004.31
2022-09-13T03:46:13.403Z,1004.31
2022-09-13T03:47:13.325Z,1004.24
2022-09-13T03:48:13.344Z,1004.24
2022-09-13T03:49:13.315Z,1004.24
2022-09-13T03:50:13.319Z,1004.25
2022-09-13T03:51:13.284Z,1004.28
2022-09-13T03:52:13.276Z,1004.19
2022-09-13T03:53:13.262Z,1004.19
2022-09-13T03:54:13.270Z,1004.20
2022-09-13T03:55:13.238Z,1004.20
2022-09-13T03:56:13.219Z,1004.21
2022-09-13T03:57:13.216Z,1004.18
2022-09-13T03:58:13.199Z,1004.16
2022-09-13T03:59:13.210Z,1004.13
2022-09-13T04:00:13.181Z,1004.14
2022-09-13T04:01:13.254Z,1004.13
2022-09-13T04:02:13.204Z,1004.08
2022-09-13T04:03:13.139Z,1004.07
2022-09-13T04:04:13.252Z,1004.10
2022-09-13T04:05:13.125Z,1004.06
2022-09-13T04:06:13.115Z,1004.11
2022-09-13T04:07:13.118Z,1004.09
2022-09-13T04:08:13.092Z,1004.12
2022-09-13T04:09:13.101Z,1004.09
2022-09-13T04:10:13.944Z,1004.11
2022-09-13T04:11:13.055Z,1004.12
2022-09-13T04:12:13.040Z,1004.14
2022-09-13T04:13:13.034Z,1004.13
2022-09-13T04:14:13.055Z,1004.16
2022-09-13T04:15:13.023Z,1004.16
2022-09-13T04:16:13.095Z,1004.18
2022-09-13T04:17:13.004Z,1004.21
2022-09-13T04:18:13.035Z,1004.25
2022-09-13T04:19:12.978Z,1004.25
2022-09-13T04:20:13.064Z,1004.27
2022-09-13T04:21:12.946Z,1004.30
2022-09-13T04:22:12.925Z,1004.30
2022-09-13T04:23:12.924Z,1004.32
2022-09-13T04:24:12.925Z,1004.31
2022-09-13T04:25:12.901Z,1004.35
2022-09-13T04:26:12.889Z,1004.30
2022-09-13T04:27:12.875Z,1004.37
2022-09-13T04:28:12.858Z,1004.37
2022-09-13T04:29:12.867Z,1004.37
2022-09-13T04:30:12.835Z,1004.37
2022-09-13T04:31:12.865Z,1004.38
2022-09-13T04:32:12.819Z,1004.38
2022-09-13T04:33:12.808Z,1004.37
2022-09-13T04:34:12.800Z,1004.39
2022-09-13T04:35:12.778Z,1004.39
2022-09-13T04:36:12.881Z,1004.38
2022-09-13T04:37:12.761Z,1004.36
2022-09-13T04:38:12.752Z,1004.37
2022-09-13T04:39:12.759Z,1004.38
2022-09-13T04:40:12.759Z,1004.37
2022-09-13T04:41:12.717Z,1004.41
2022-09-13T04:42:12.705Z,1004.39
2022-09-13T04:43:12.689Z,1004.36
2022-09-13T04:44:12.699Z,1004.38
2022-09-13T04:45:12.670Z,1004.37
2022-09-13T04:46:12.738Z,1004.35
2022-09-13T04:47:12.647Z,1004.36
2022-09-13T04:48:12.636Z,1004.41
2022-09-13T04:49:12.640Z,1004.39
2022-09-13T04:50:12.617Z,1004.42
2022-09-13T04:51:12.597Z,1004.42
2022-09-13T04:52:12.607Z,1004.43
2022-09-13T04:53:12.579Z,1004.48
2022-09-13T04:54:15.654Z,1004.49
2022-09-13T04:55:12.550Z,1004.46
2022-09-13T04:56:12.534Z,1004.46
2022-09-13T04:57:12.522Z,1004.45
2022-09-13T04:58:12.519Z,1004.46
2022-09-13T04:59:12.531Z,1004.49
2022-09-13T05:00:12.502Z,1004.47
2022-09-13T05:01:12.548Z,1004.47
2022-09-13T05:02:12.492Z,1004.50
2022-09-13T05:03:12.467Z,1004.49
2022-09-13T05:04:12.466Z,1004.47
2022-09-13T05:05:12.439Z,1004.50
2022-09-13T05:06:12.432Z,1004.48
2022-09-13T05:07:12.431Z,1004.46
2022-09-13T05:08:12.513Z,1004.46
2022-09-13T05:09:12.414Z,1004.46
2022-09-13T05:10:16.322Z,1004.45
2022-09-13T05:11:13.367Z,1004.44
2022-09-13T05:12:12.363Z,1004.45
2022-09-13T05:13:12.354Z,1004.46
2022-09-13T05:14:12.362Z,1004.46
2022-09-13T05:15:12.323Z,1004.51
2022-09-13T05:16:12.345Z,1004.50
2022-09-13T05:17:12.308Z,1004.47
2022-09-13T05:18:12.291Z,1004.48
2022-09-13T05:19:12.301Z,1004.46
2022-09-13T05:20:12.278Z,1004.46
2022-09-13T05:21:12.267Z,1004.45
2022-09-13T05:22:12.247Z,1004.48
2022-09-13T05:23:12.240Z,1004.46
2022-09-13T05:24:12.349Z,1004.51
2022-09-13T05:25:12.208Z,1004.51
2022-09-13T05:26:12.206Z,1004.55
2022-09-13T05:27:12.192Z,1004.57
2022-09-13T05:28:12.186Z,1004.54
2022-09-13T05:29:12.263Z,1004.57
2022-09-13T05:30:12.151Z,1004.59
2022-09-13T05:31:12.200Z,1004.57
2022-09-13T05:32:12.135Z,1004.58
2022-09-13T05:33:12.118Z,1004.59
2022-09-13T05:34:12.127Z,1004.58
2022-09-13T05:35:12.106Z,1004.54
2022-09-13T05:36:12.084Z,1004.52
2022-09-13T05:37:12.078Z,1004.52
2022-09-13T05:38:12.071Z,1004.53
2022-09-13T05:39:29.632Z,1004.54
2022-09-13T05:40:13.171Z,1004.49
2022-09-13T05:41:12.028Z,1004.49
2022-09-13T05:42:12.020Z,1004.50
2022-09-13T05:43:12.004Z,1004.46
2022-09-13T05:44:13.568Z,1004.46
2022-09-13T05:45:12.008Z,1004.44
2022-09-13T05:46:12.082Z,1004.46
2022-09-13T05:47:11.988Z,1004.47
2022-09-13T05:48:11.944Z,1004.48
2022-09-13T05:49:11.958Z,1004.52
2022-09-13T05:50:22.907Z,1004.55
2022-09-13T05:51:12.915Z,1004.52
2022-09-13T05:52:11.901Z,1004.57
2022-09-13T05:53:11.909Z,1004.56
2022-09-13T05:54:11.890Z,1004.52
2022-09-13T05:55:11.871Z,1004.49
2022-09-13T05:56:16.331Z,1004.53
2022-09-13T05:57:11.848Z,1004.46
2022-09-13T05:58:11.836Z,1004.47
2022-09-13T05:59:11.834Z,1004.49
2022-09-13T06:00:11.816Z,1004.45
2022-09-13T06:01:11.796Z,1004.45
2022-09-13T06:02:11.829Z,1004.41
2022-09-13T06:03:11.779Z,1004.41
2022-09-13T06:04:11.780Z,1004.37
2022-09-13T06:05:11.749Z,1004.36
2022-09-13T06:06:11.747Z,1004.32
2022-09-13T06:07:11.737Z,1004.36
2022-09-13T06:08:11.727Z,1004.34
2022-09-13T06:09:11.720Z,1004.32
2022-09-13T06:10:11.702Z,1004.34
2022-09-13T06:11:11.690Z,1004.35
2022-09-13T06:12:11.697Z,1004.35
2022-09-13T06:13:11.659Z,1004.35
2022-09-13T06:14:11.665Z,1004.31
2022-09-13T06:15:11.685Z,1004.36
2022-09-13T06:16:11.714Z,1004.33
2022-09-13T06:17:11.623Z,1004.35
2022-09-13T06:18:11.611Z,1004.45
2022-09-13T06:19:11.619Z,1004.48
2022-09-13T06:20:11.581Z,1004.51
2022-09-13T06:21:11.571Z,1004.59
2022-09-13T06:22:11.567Z,1004.57
2022-09-13T06:23:11.559Z,1004.51
2022-09-13T06:24:11.542Z,1004.53
2022-09-13T06:25:11.542Z,1004.55
2022-09-13T06:26:11.590Z,1004.51
2022-09-13T06:27:12.499Z,1004.49
2022-09-13T06:28:11.509Z,1004.47
2022-09-13T06:29:11.501Z,1004.45
2022-09-13T06:30:11.487Z,1004.45
2022-09-13T06:31:11.570Z,1004.48
2022-09-13T06:32:11.443Z,1004.51
2022-09-13T06:33:11.498Z,1004.46
2022-09-13T06:34:11.430Z,1004.45
2022-09-13T06:35:11.430Z,1004.44
2022-09-13T06:36:11.410Z,1004.42
2022-09-13T06:37:11.393Z,1004.41
2022-09-13T06:38:11.382Z,1004.43
2022-09-13T06:39:11.364Z,1004.44
2022-09-13T06:40:11.488Z,1004.41
2022-09-13T06:41:11.357Z,1004.43
2022-09-13T06:42:11.332Z,1004.42
2022-09-13T06:43:11.346Z,1004.44
2022-09-13T06:44:11.340Z,1004.41
2022-09-13T06:45:11.326Z,1004.43
2022-09-13T06:46:11.340Z,1004.42
2022-09-13T06:47:11.279Z,1004.39
2022-09-13T06:48:11.271Z,1004.43
2022-09-13T06:49:11.249Z,1004.45
2022-09-13T06:50:11.245Z,1004.44
2022-09-13T06:51:11.251Z,1004.44
2022-09-13T06:52:11.228Z,1004.44
2022-09-13T06:53:11.205Z,1004.44
2022-09-13T06:54:11.200Z,1004.42
2022-09-13T06:55:12.811Z,1004.36
2022-09-13T06:56:11.185Z,1004.36
2022-09-13T06:57:11.163Z,1004.37
2022-09-13T06:58:11.169Z,1004.37
2022-09-13T06:59:11.137Z,1004.36
2022-09-13T07:00:11.155Z,1004.40
2022-09-13T07:01:11.168Z,1004.38
2022-09-13T07:02:11.141Z,1004.40
2022-09-13T07:03:11.108Z,1004.43
2022-09-13T07:04:11.097Z,1004.40
2022-09-13T07:05:11.073Z,1004.41
2022-09-13T07:06:11.070Z,1004.40
2022-09-13T07:07:11.046Z,1004.37
2022-09-13T07:08:11.035Z,1004.43
2022-09-13T07:09:11.032Z,1004.47
2022-09-13T07:10:11.016Z,1004.49
2022-09-13T07:11:11.016Z,1004.51
2022-09-13T07:12:10.998Z,1004.48
2022-09-13T07:13:10.981Z,1004.49
2022-09-13T07:14:10.966Z,1004.45
2022-09-13T07:15:10.954Z,1004.46
2022-09-13T07:16:11.157Z,1004.51
2022-09-13T07:17:10.933Z,1004.49
2022-09-13T07:18:10.925Z,1004.48
2022-09-13T07:19:10.918Z,1004.51
2022-09-13T07:20:10.912Z,1004.50
2022-09-13T07:21:10.905Z,1004.52
2022-09-13T07:22:10.881Z,1004.47
2022-09-13T07:23:15.166Z,1004.52
2022-09-13T07:24:10.850Z,1004.52
2022-09-13T07:25:10.846Z,1004.51
2022-09-13T07:26:10.841Z,1004.51
2022-09-13T07:27:10.817Z,1004.54
2022-09-13T07:28:10.806Z,1004.53
2022-09-13T07:29:10.794Z,1004.54
2022-09-13T07:30:10.832Z,1004.56
2022-09-13T07:31:10.833Z,1004.54
2022-09-13T07:32:10.844Z,1004.57
2022-09-13T07:33:10.748Z,1004.57
2022-09-13T07:34:10.745Z,1004.54
2022-09-13T07:35:10.723Z,1004.56
2022-09-13T07:36:10.729Z,1004.51
2022-09-13T07:37:10.701Z,1004.50
2022-09-13T07:38:10.690Z,1004.52
2022-09-13T07:39:15.001Z,1004.52
2022-09-13T07:40:11.841Z,1004.49
2022-09-13T07:41:10.679Z,1004.52
2022-09-13T07:42:10.646Z,1004.45
2022-09-13T07:43:10.742Z,1004.48
2022-09-13T07:44:10.632Z,1004.50
2022-09-13T07:45:10.615Z,1004.52
2022-09-13T07:46:10.719Z,1004.50
2022-09-13T07:47:10.602Z,1004.46
2022-09-13T07:48:10.616Z,1004.45
2022-09-13T07:49:10.570Z,1004.39
2022-09-13T07:50:10.567Z,1004.42
2022-09-13T07:51:10.557Z,1004.41
2022-09-13T07:52:10.538Z,1004.42
2022-09-13T07:53:10.525Z,1004.45
2022-09-13T07:54:10.517Z,1004.47
2022-09-13T07:55:10.514Z,1004.53
2022-09-13T07:56:10.514Z,1004.50
2022-09-13T07:57:10.488Z,1004.50
2022-09-13T07:58:10.479Z,1004.52
2022-09-13T07:59:10.471Z,1004.53
2022-09-13T08:00:10.459Z,1004.55
2022-09-13T08:01:10.488Z,1004.57
2022-09-13T08:02:10.492Z,1004.54
2022-09-13T08:03:10.434Z,1004.61
2022-09-13T08:04:10.431Z,1004.60
2022-09-13T08:05:10.403Z,1004.58
2022-09-13T08:06:10.449Z,1004.58
2022-09-13T08:07:10.393Z,1004.58
2022-09-13T08:08:10.359Z,1004.63
2022-09-13T08:09:10.353Z,1004.61
2022-09-13T08:10:10.335Z,1004.62
2022-09-13T08:11:10.339Z,1004.58
2022-09-13T08:12:10.326Z,1004.61
2022-09-13T08:13:10.311Z,1004.54
2022-09-13T08:14:10.298Z,1004.54
2022-09-13T08:15:10.287Z,1004.55
2022-09-13T08:16:10.345Z,1004.50
2022-09-13T08:17:10.264Z,1004.50
2022-09-13T08:18:10.262Z,1004.47
2022-09-13T08:19:11.298Z,1004.45
2022-09-13T08:20:10.623Z,1004.46
2022-09-13T08:21:10.318Z,1004.46
2022-09-13T08:22:10.297Z,1004.46
2022-09-13T08:23:10.236Z,1004.54
2022-09-13T08:24:10.292Z,1004.52
2022-09-13T08:25:10.214Z,1004.53
2022-09-13T08:26:10.232Z,1004.49
2022-09-13T08:27:10.190Z,1004.50
2022-09-13T08:28:10.190Z,1004.55
2022-09-13T08:29:10.131Z,1004.54
2022-09-13T08:30:10.152Z,1004.52
2022-09-13T08:31:10.183Z,1004.52
2022-09-13T08:32:10.098Z,1004.51
2022-09-13T08:33:10.081Z,1004.52
2022-09-13T08:34:10.096Z,1004.53
2022-09-13T08:35:10.088Z,1004.57
2022-09-13T08:36:10.209Z,1004.56
2022-09-13T08:37:10.092Z,1004.57
2022-09-13T08:38:10.059Z,1004.57
2022-09-13T08:39:10.096Z,1004.58
2022-09-13T08:40:10.127Z,1004.62
2022-09-13T08:41:10.086Z,1004.58
2022-09-13T08:42:10.004Z,1004.60
2022-09-13T08:43:09.969Z,1004.56
2022-09-13T08:44:09.997Z,1004.56
2022-09-13T08:45:10.003Z,1004.55
2022-09-13T08:46:10.081Z,1004.59
2022-09-13T08:47:09.980Z,1004.61
2022-09-13T08:48:09.953Z,1004.60
2022-09-13T08:49:14.154Z,1004.60
2022-09-13T08:50:10.937Z,1004.60
2022-09-13T08:51:09.983Z,1004.64
2022-09-13T08:52:10.044Z,1004.56
2022-09-13T08:53:09.895Z,1004.55
2022-09-13T08:54:09.906Z,1004.54
2022-09-13T08:55:09.888Z,1004.56
2022-09-13T08:56:09.948Z,1004.59
2022-09-13T08:57:09.854Z,1004.53
2022-09-13T08:58:09.856Z,1004.56
2022-09-13T08:59:09.874Z,1004.52
2022-09-13T09:00:09.825Z,1004.54
2022-09-13T09:01:10.002Z,1004.57
2022-09-13T09:02:09.855Z,1004.60
2022-09-13T09:03:09.811Z,1004.52
2022-09-13T09:04:09.810Z,1004.56
2022-09-13T09:05:09.784Z,1004.57
2022-09-13T09:06:09.883Z,1004.52
2022-09-13T09:07:09.765Z,1004.52
2022-09-13T09:08:09.823Z,1004.52
2022-09-13T09:09:09.764Z,1004.57
2022-09-13T09:10:09.698Z,1004.58
2022-09-13T09:11:09.857Z,1004.60
2022-09-13T09:12:09.715Z,1004.62
2022-09-13T09:13:09.728Z,1004.62
2022-09-13T09:14:09.683Z,1004.64
2022-09-13T09:15:09.665Z,1004.55
2022-09-13T09:16:09.806Z,1004.55
2022-09-13T09:17:09.622Z,1004.56
2022-09-13T09:18:09.650Z,1004.55
2022-09-13T09:19:09.617Z,1004.55
2022-09-13T09:20:09.602Z,1004.55
2022-09-13T09:21:09.657Z,1004.57
2022-09-13T09:22:09.593Z,1004.56
2022-09-13T09:23:09.587Z,1004.56
2022-09-13T09:24:09.741Z,1004.58
2022-09-13T09:25:10.113Z,1004.61
2022-09-13T09:26:09.600Z,1004.64
2022-09-13T09:27:09.547Z,1004.65
2022-09-13T09:28:09.533Z,1004.63
2022-09-13T09:29:09.516Z,1004.64
2022-09-13T09:30:09.461Z,1004.63
2022-09-13T09:31:09.564Z,1004.64
2022-09-13T09:32:09.450Z,1004.56
2022-09-13T09:33:09.422Z,1004.62
2022-09-13T09:34:09.418Z,1004.59
2022-09-13T09:35:09.408Z,1004.59
2022-09-13T09:36:09.402Z,1004.54
2022-09-13T09:37:09.380Z,1004.54
2022-09-13T09:38:09.378Z,1004.56
2022-09-13T09:39:09.357Z,1004.53
2022-09-13T09:40:09.484Z,1004.51
2022-09-13T09:41:09.359Z,1004.51
2022-09-13T09:42:09.333Z,1004.52
2022-09-13T09:43:09.319Z,1004.51
2022-09-13T09:44:09.309Z,1004.49
2022-09-13T09:45:09.296Z,1004.57
2022-09-13T09:46:09.325Z,1004.53
2022-09-13T09:47:09.270Z,1004.53
2022-09-13T09:48:09.263Z,1004.50
2022-09-13T09:49:09.257Z,1004.49
2022-09-13T09:50:09.250Z,1004.51
2022-09-13T09:51:09.257Z,1004.55
2022-09-13T09:52:09.215Z,1004.53
2022-09-13T09:53:09.205Z,1004.55
2022-09-13T09:54:09.200Z,1004.53
2022-09-13T09:55:09.193Z,1004.51
2022-09-13T09:56:09.233Z,1004.55
2022-09-13T09:57:09.187Z,1004.56
2022-09-13T09:58:09.157Z,1004.58
2022-09-13T09:59:09.146Z,1004.57
2022-09-13T10:00:09.129Z,1004.59
2022-09-13T10:01:11.355Z,1004.59
2022-09-13T10:02:09.145Z,1004.52
2022-09-13T10:03:09.105Z,1004.53
2022-09-13T10:04:09.093Z,1004.51
2022-09-13T10:05:09.083Z,1004.49
2022-09-13T10:06:09.082Z,1004.47
2022-09-13T10:07:12.514Z,1004.48
2022-09-13T10:08:10.054Z,1004.45
2022-09-13T10:09:09.037Z,1004.40
2022-09-13T10:10:09.149Z,1004.46
2022-09-13T10:11:09.030Z,1004.48
2022-09-13T10:12:09.014Z,1004.41
2022-09-13T10:13:09.003Z,1004.40
2022-09-13T10:14:09.002Z,1004.45
2022-09-13T10:15:08.969Z,1004.45
2022-09-13T10:16:08.976Z,1004.44
2022-09-13T10:17:08.943Z,1004.42
2022-09-13T10:18:26.426Z,1004.44
2022-09-13T10:19:11.692Z,1004.41
2022-09-13T10:20:08.909Z,1004.38
2022-09-13T10:21:08.925Z,1004.40
2022-09-13T10:22:08.895Z,1004.41
2022-09-13T10:23:08.879Z,1004.36
2022-09-13T10:24:08.888Z,1004.36
2022-09-13T10:25:08.865Z,1004.37
2022-09-13T10:26:08.866Z,1004.35
2022-09-13T10:27:08.845Z,1004.37
2022-09-13T10:28:08.861Z,1004.32
2022-09-13T10:29:08.838Z,1004.33
2022-09-13T10:30:08.809Z,1004.34
2022-09-13T10:31:08.854Z,1004.33
2022-09-13T10:32:08.781Z,1004.34
2022-09-13T10:33:08.777Z,1004.32
2022-09-13T10:34:08.768Z,1004.32
2022-09-13T10:35:08.749Z,1004.28
2022-09-13T10:36:08.764Z,1004.25
2022-09-13T10:37:08.747Z,1004.32
2022-09-13T10:38:08.726Z,1004.29
2022-09-13T10:39:08.715Z,1004.31
2022-09-13T10:40:08.826Z,1004.24
2022-09-13T10:41:10.625Z,1004.23
2022-09-13T10:42:08.678Z,1004.21
2022-09-13T10:43:08.666Z,1004.24
2022-09-13T10:44:09.829Z,1004.18
2022-09-13T10:45:08.645Z,1004.16
2022-09-13T10:46:08.802Z,1004.21
2022-09-13T10:47:08.657Z,1004.23
2022-09-13T10:48:08.608Z,1004.18
2022-09-13T10:49:08.607Z,1004.15
2022-09-13T10:50:08.613Z,1004.19
2022-09-13T10:51:08.576Z,1004.18
2022-09-13T10:52:12.619Z,1004.20
2022-09-13T10:53:09.554Z,1004.17
2022-09-13T10:54:08.550Z,1004.14
2022-09-13T10:55:08.534Z,1004.17
2022-09-13T10:56:08.738Z,1004.14
2022-09-13T10:57:08.518Z,1004.16
2022-09-13T10:58:08.501Z,1004.16
2022-09-13T10:59:08.505Z,1004.15
2022-09-13T11:00:08.580Z,1004.11
2022-09-13T11:01:08.528Z,1004.10
2022-09-13T11:02:08.468Z,1004.08
2022-09-13T11:03:08.459Z,1004.08
2022-09-13T11:04:08.497Z,1004.09
2022-09-13T11:05:08.430Z,1004.04
2022-09-13T11:06:08.420Z,1004.08
2022-09-13T11:07:08.420Z,1004.02
2022-09-13T11:08:08.392Z,1004.02
2022-09-13T11:09:08.393Z,1004.01
2022-09-13T11:10:08.372Z,1004.01
2022-09-13T11:11:08.375Z,1004.03
2022-09-13T11:12:08.369Z,1004.07
2022-09-13T11:13:08.338Z,1004.05
2022-09-13T11:14:08.335Z,1004.04
2022-09-13T11:15:08.326Z,1004.02
2022-09-13T11:16:08.457Z,1004.04
2022-09-13T11:17:08.313Z,1004.03
2022-09-13T11:18:08.299Z,1004.03
2022-09-13T11:19:08.276Z,1004.01
2022-09-13T11:20:08.269Z,1004.00
2022-09-13T11:21:08.259Z,1004.01
2022-09-13T11:22:08.257Z,1004.02
2022-09-13T11:23:08.256Z,1003.98
2022-09-13T11:24:08.227Z,1004.00
2022-09-13T11:25:08.208Z,1004.00
2022-09-13T11:26:08.200Z,1003.98
2022-09-13T11:27:08.191Z,1003.94
2022-09-13T11:28:08.199Z,1003.89
2022-09-13T11:29:08.170Z,1003.88
2022-09-13T11:30:08.155Z,1003.88
2022-09-13T11:31:08.143Z,1003.86
2022-09-13T11:32:08.211Z,1003.85
2022-09-13T11:33:08.137Z,1003.89
2022-09-13T11:34:08.123Z,1003.88
2022-09-13T11:35:08.117Z,1003.84
2022-09-13T11:36:08.099Z,1003.85
2022-09-13T11:37:08.098Z,1003.81
2022-09-13T11:38:08.090Z,1003.81
2022-09-13T11:39:08.065Z,1003.78
2022-09-13T11:40:08.115Z,1003.77
2022-09-13T11:41:08.053Z,1003.76
2022-09-13T11:42:08.031Z,1003.75
2022-09-13T11:43:08.029Z,1003.74
2022-09-13T11:44:08.013Z,1003.78
2022-09-13T11:45:08.002Z,1003.79
2022-09-13T11:46:08.040Z,1003.80
2022-09-13T11:47:07.979Z,1003.77
2022-09-13T11:48:08.009Z,1003.79
2022-09-13T11:49:07.956Z,1003.79
2022-09-13T11:50:07.947Z,1003.72
2022-09-13T11:51:07.937Z,1003.72
2022-09-13T11:52:07.926Z,1003.72
2022-09-13T11:53:07.923Z,1003.75
2022-09-13T11:54:07.908Z,1003.73
2022-09-13T11:55:07.889Z,1003.75
2022-09-13T11:56:07.885Z,1003.78
2022-09-13T11:57:07.867Z,1003.76
2022-09-13T11:58:07.872Z,1003.82
2022-09-13T11:59:11.153Z,1003.81
2022-09-13T12:00:08.853Z,1003.83
2022-09-13T12:01:07.831Z,1003.77
2022-09-13T12:02:07.985Z,1003.72
2022-09-13T12:03:08.000Z,1003.75
2022-09-13T12:04:07.816Z,1003.80
2022-09-13T12:05:24.021Z,1003.77